Time;durP1;ratioP1;P1;durP2;ratioP2;P2;SDS_P1;SDS_P2;PMS_P1;PMS_P2;Temp;Humidity;BMP_temperature;BMP_pressure;BME280_temperature;BME280_humidity;BME280_pressure;Samples;Min_cycle;Max_cycle;Signal;HPM_P1;HPM_P2
2021/01/23 00:00:15;;;;;;;7.40;4.72;;;25.00;86.80;;;;;;6269806;22;19995;-93
2021/01/23 00:02:47;;;;;;;8.75;5.00;;;25.00;86.30;;;;;;6270853;22;20010;-93
2021/01/23 00:05:32;;;;;;;8.43;4.90;;;25.00;86.30;;;;;;6268388;22;19999;-91
2021/01/23 00:08:53;;;;;;;;;;;;;;;;;;;;;
2021/01/23 00:11:45;;;;;;;;;;;24.90;86.70;;;;;;6256784;22;20023;-92
2021/01/23 00:14:17;;;;;;;6.40;4.88;;;24.90;86.40;;;;;;6267601;22;19895;-94
2021/01/23 00:17:05;;;;;;;5.13;4.63;;;24.90;86.50;;;;;;6268942;22;20018;-92
2021/01/23 00:19:42;;;;;;;6.88;4.30;;;24.80;86.30;;;;;;6267360;22;20027;-92
2021/01/23 00:22:12;;;;;;;7.70;5.50;;;24.80;85.80;;;;;;6270373;22;19995;-92
2021/01/23 00:25:34;;;;;;;11.18;7.20;;;24.80;86.10;;;;;;6200525;23;20348;-94
2021/01/23 00:28:08;;;;;;;11.68;7.40;;;24.80;85.50;;;;;;6173320;23;20001;-93
2021/01/23 00:30:35;;;;;;;8.77;6.53;;;24.80;85.30;;;;;;6174303;23;19997;-95
2021/01/23 00:33:17;;;;;;;8.00;5.20;;;24.80;85.30;;;;;;6174415;23;20004;-95
2021/01/23 00:35:43;;;;;;;;;;;24.80;85.40;;;;;;6157416;23;20026;-91
2021/01/23 00:38:10;;;;;;;8.38;4.85;;;24.80;85.70;;;;;;6225992;23;19904;-92
2021/01/23 00:40:42;;;;;;;8.85;5.15;;;24.80;86.30;;;;;;6175872;23;20012;-92
2021/01/23 00:46:58;;;;;;;7.00;5.10;;;24.80;85.70;;;;;;6120184;23;19893;-93
2021/01/23 00:49:28;;;;;;;7.82;4.20;;;24.80;85.20;;;;;;6049245;23;20136;-94
2021/01/23 01:00:00;;;;;;;7.47;4.88;;;24.70;85.90;;;;;;6343417;22;20011;-91
2021/01/23 01:02:29;;;;;;;7.43;4.60;;;24.60;86.10;;;;;;6352451;22;20318;-90
2021/01/23 01:06:09;;;;;;;10.70;5.30;;;24.60;85.60;;;;;;6328143;22;19995;-89
2021/01/23 01:09:14;;;;;;;6.38;4.50;;;24.60;85.80;;;;;;6232405;23;19997;-90
2021/01/23 01:11:40;;;;;;;9.48;5.35;;;24.60;85.70;;;;;;6268471;22;19999;-92
2021/01/23 01:14:07;;;;;;;11.02;5.43;;;24.50;85.80;;;;;;6327826;22;19998;-88
2021/01/23 01:16:38;;;;;;;7.90;5.47;;;24.40;86.40;;;;;;6357037;22;19995;-89
2021/01/23 01:19:09;;;;;;;5.80;4.40;;;24.40;86.00;;;;;;6307330;22;20006;-88
2021/01/23 01:21:36;;;;;;;5.85;4.80;;;24.40;86.20;;;;;;6331043;22;19999;-90
2021/01/23 01:24:09;;;;;;;7.95;5.05;;;24.50;86.30;;;;;;6306721;22;20018;-92
2021/01/23 01:26:40;;;;;;;7.47;5.00;;;24.50;86.20;;;;;;6330513;22;19995;-91
2021/01/23 01:29:16;;;;;;;11.35;5.72;;;24.50;86.00;;;;;;6327390;22;20136;-93
2021/01/23 01:31:45;;;;;;;10.43;6.20;;;24.50;86.20;;;;;;6354201;22;19995;-89
2021/01/23 01:34:18;;;;;;;9.93;6.72;;;24.40;85.80;;;;;;6328326;22;19995;-91
2021/01/23 01:36:49;;;;;;;8.45;6.10;;;24.40;85.80;;;;;;6325886;22;19991;-91
2021/01/23 01:39:43;;;;;;;9.13;5.57;;;24.40;86.10;;;;;;6301665;22;19999;-92
2021/01/23 01:42:09;;;;;;;9.43;6.50;;;24.40;86.10;;;;;;6352672;22;19991;-92
2021/01/23 01:45:00;;;;;;;9.15;4.90;;;24.40;86.00;;;;;;6327062;22;20022;-91
2021/01/23 01:47:32;;;;;;;10.45;5.93;;;24.40;86.00;;;;;;6261907;22;20000;-90
2021/01/23 01:50:03;;;;;;;7.72;4.22;;;24.40;85.90;;;;;;6240327;23;20004;-92
2021/01/23 01:52:52;;;;;;;8.77;4.78;;;24.40;85.90;;;;;;6268479;22;19996;-88
2021/01/23 01:55:37;;;;;;;8.05;5.28;;;24.40;85.90;;;;;;6243872;23;20007;-89
2021/01/23 01:58:09;;;;;;;5.70;4.28;;;24.40;86.00;;;;;;6265419;22;20247;-89
2021/01/23 02:00:38;;;;;;;;;;;24.30;86.20;;;;;;6241497;23;20044;-89
2021/01/23 02:04:07;;;;;;;7.80;4.40;;;24.30;86.40;;;;;;6267741;22;19951;-92
2021/01/23 02:06:52;;;;;;;7.88;5.13;;;24.30;86.10;;;;;;6237529;23;19992;-90
2021/01/23 02:12:34;;;;;;;7.03;5.05;;;24.30;86.80;;;;;;6309857;22;20036;-91
2021/01/23 02:15:14;;;;;;;9.38;5.35;;;24.30;87.20;;;;;;6361521;22;20058;-91
2021/01/23 02:21:06;;;;;;;8.98;5.70;;;24.10;86.90;;;;;;6299961;22;20075;-92
2021/01/23 02:23:38;;;;;;;10.07;5.53;;;24.10;86.70;;;;;;6299010;22;20011;-92
2021/01/23 02:26:14;;;;;;;7.32;4.80;;;24.10;86.80;;;;;;6276165;22;19991;-92
2021/01/23 02:29:08;;;;;;;7.28;5.38;;;24.20;86.30;;;;;;6274073;22;19984;-93
2021/01/23 02:32:00;;;;;;;8.82;4.90;;;24.20;86.40;;;;;;6297846;22;20070;-94
2021/01/23 02:34:38;;;;;;;8.82;4.60;;;24.20;86.40;;;;;;6294908;22;20000;-93
2021/01/23 02:37:25;;;;;;;5.38;4.25;;;24.20;86.30;;;;;;6269836;22;20015;-90
2021/01/23 02:39:58;;;;;;;8.35;4.47;;;24.20;86.10;;;;;;6245955;22;20038;-93
2021/01/23 02:42:26;;;;;;;9.18;5.57;;;24.30;86.00;;;;;;6294420;22;19996;-93
2021/01/23 02:45:13;;;;;;;10.63;6.63;;;24.30;86.20;;;;;;6300245;22;19996;-94
2021/01/23 02:47:39;;;;;;;10.05;6.68;;;24.30;85.70;;;;;;6270773;22;19991;-91
2021/01/23 02:50:07;;;;;;;10.27;7.65;;;24.30;86.20;;;;;;6271798;22;20037;-92
2021/01/23 02:53:09;;;;;;;10.60;5.53;;;24.30;85.40;;;;;;6270513;22;19992;-93
2021/01/23 02:55:40;;;;;;;9.70;7.10;;;24.30;85.70;;;;;;6119093;23;20006;-94
2021/01/23 02:58:12;;;;;;;9.82;6.55;;;24.30;85.80;;;;;;6118407;23;20222;-90
2021/01/23 03:00:40;;;;;;;;;;;24.30;85.40;;;;;;6250950;22;20209;-92
2021/01/23 03:03:08;;;;;;;8.77;5.55;;;24.30;85.40;;;;;;6270799;22;19899;-94
2021/01/23 03:05:36;;;;;;;9.88;5.82;;;24.30;85.40;;;;;;6242996;22;20007;-93
2021/01/23 03:08:03;;;;;;;9.40;5.88;;;24.30;85.50;;;;;;6239014;22;20003;-94
2021/01/23 03:10:48;;;;;;;7.85;4.80;;;24.30;85.30;;;;;;6265581;22;19999;-94
2021/01/23 03:13:16;;;;;;;6.75;5.20;;;24.30;85.20;;;;;;6295566;22;20003;-92
2021/01/23 03:15:43;;;;;;;8.63;4.93;;;24.30;85.40;;;;;;6269387;22;20022;-91
2021/01/23 03:18:10;;;;;;;6.22;4.95;;;24.30;85.00;;;;;;6269064;22;20000;-93
2021/01/23 03:20:38;;;;;;;9.20;4.78;;;24.30;85.40;;;;;;6270981;22;20030;-93
2021/01/23 03:23:15;;;;;;;6.50;5.22;;;24.30;85.00;;;;;;6272313;22;20000;-91
2021/01/23 03:25:41;;;;;;;8.05;4.53;;;24.30;84.90;;;;;;6270587;22;19998;-92
2021/01/23 03:28:08;;;;;;;9.88;5.00;;;24.30;84.80;;;;;;6269761;22;20019;-91
2021/01/23 03:30:34;;;;;;;6.72;4.45;;;24.30;84.60;;;;;;6268638;22;20000;-93
2021/01/23 03:33:01;;;;;;;7.80;4.95;;;24.30;84.50;;;;;;6271097;22;19996;-91
2021/01/23 03:35:29;;;;;;;8.00;4.95;;;24.40;84.40;;;;;;6267673;22;20000;-93
2021/01/23 03:37:56;;;;;;;6.13;4.32;;;24.40;84.60;;;;;;6295922;22;20007;-90
2021/01/23 03:40:23;;;;;;;8.20;4.30;;;24.40;84.30;;;;;;6272386;22;20034;-90
2021/01/23 03:42:50;;;;;;;7.55;5.07;;;24.40;84.50;;;;;;6273546;22;19995;-91
2021/01/23 03:45:18;;;;;;;6.85;4.25;;;24.40;84.20;;;;;;6273836;22;20030;-91
2021/01/23 03:47:47;;;;;;;6.25;4.55;;;24.40;83.90;;;;;;6273807;22;20020;-92
2021/01/23 03:50:14;;;;;;;7.30;4.40;;;24.50;84.10;;;;;;6273720;22;20011;-91
2021/01/23 03:52:41;;;;;;;8.68;4.85;;;24.50;83.70;;;;;;6273421;22;19995;-91
2021/01/23 03:55:09;;;;;;;7.65;4.63;;;24.50;83.70;;;;;;6270885;22;20010;-91
2021/01/23 03:57:35;;;;;;;9.13;5.28;;;24.50;83.50;;;;;;6268600;22;20002;-91
2021/01/23 04:00:05;;;;;;;6.82;5.13;;;24.50;83.60;;;;;;6268435;22;20008;-91
2021/01/23 04:02:32;;;;;;;9.38;4.78;;;24.50;83.20;;;;;;6266846;22;20240;-93
2021/01/23 04:04:59;;;;;;;10.88;5.20;;;24.50;83.20;;;;;;6241471;22;20000;-92
2021/01/23 04:07:25;;;;;;;6.60;4.60;;;24.50;82.90;;;;;;6265567;22;19994;-93
2021/01/23 04:09:52;;;;;;;7.50;4.85;;;24.50;82.90;;;;;;6264610;22;19999;-91
2021/01/23 04:12:20;;;;;;;7.85;4.60;;;24.50;82.60;;;;;;6267356;22;20003;-94
2021/01/23 04:14:47;;;;;;;6.60;4.93;;;24.60;82.80;;;;;;6267207;22;19999;-92
2021/01/23 04:17:15;;;;;;;10.07;4.78;;;24.60;82.30;;;;;;6264885;22;20007;-95
2021/01/23 04:19:42;;;;;;;5.82;4.00;;;24.60;82.50;;;;;;6262849;22;20015;-94
2021/01/23 04:22:08;;;;;;;11.85;5.00;;;24.60;82.20;;;;;;6262619;22;20062;-95
2021/01/23 04:24:35;;;;;;;7.38;4.95;;;24.60;82.50;;;;;;6262070;22;19999;-95
2021/01/23 04:27:01;;;;;;;8.50;4.32;;;24.60;81.80;;;;;;6262608;22;20145;-95
2021/01/23 04:29:28;;;;;;;8.15;4.50;;;24.60;81.90;;;;;;6289790;22;19995;-93
2021/01/23 04:31:55;;;;;;;8.98;5.28;;;24.60;82.30;;;;;;6265128;22;20030;-94
2021/01/23 04:34:21;;;;;;;9.35;4.90;;;24.70;82.40;;;;;;6265473;22;20006;-92
2021/01/23 04:36:48;;;;;;;6.18;4.18;;;24.70;82.00;;;;;;6264802;22;19992;-95
2021/01/23 04:39:15;;;;;;;7.63;4.55;;;24.70;81.70;;;;;;6264226;22;20130;-95
2021/01/23 04:41:41;;;;;;;8.93;4.57;;;24.70;81.50;;;;;;6262769;22;20030;-95
2021/01/23 04:44:08;;;;;;;7.75;4.80;;;24.70;81.60;;;;;;6262241;22;20143;-94
2021/01/23 04:46:35;;;;;;;7.00;4.45;;;24.70;81.40;;;;;;6261454;22;19992;-93
2021/01/23 04:49:03;;;;;;;5.88;4.25;;;24.70;81.40;;;;;;6261911;22;20200;-94
2021/01/23 04:51:30;;;;;;;7.95;5.00;;;24.70;81.20;;;;;;6264488;22;19992;-94
2021/01/23 04:53:56;;;;;;;7.60;4.53;;;24.70;81.20;;;;;;6243016;22;19999;-92
2021/01/23 04:56:27;;;;;;;5.53;4.43;;;24.70;80.90;;;;;;6270320;22;20038;-91
2021/01/23 04:58:54;;;;;;;9.07;4.65;;;24.70;80.70;;;;;;6295911;22;20012;-92
2021/01/23 05:01:21;;;;;;;8.13;4.55;;;24.70;81.40;;;;;;6267721;22;20027;-93
2021/01/23 05:04:13;;;;;;;7.55;4.38;;;24.70;81.20;;;;;;6268297;22;20027;-91
2021/01/23 05:06:57;;;;;;;8.93;4.00;;;24.80;81.00;;;;;;6268909;22;19996;-91
2021/01/23 05:09:27;;;;;;;5.80;3.97;;;24.80;80.40;;;;;;6269185;22;20023;-93
2021/01/23 05:11:53;;;;;;;7.85;4.03;;;24.80;80.70;;;;;;6264653;22;20063;-92
2021/01/23 05:14:20;;;;;;;5.85;3.90;;;24.80;80.20;;;;;;6266836;22;20000;-93
2021/01/23 05:16:47;;;;;;;6.50;4.70;;;24.80;80.30;;;;;;6264255;22;20000;-93
2021/01/23 05:19:14;;;;;;;7.40;4.40;;;24.80;80.50;;;;;;6267672;22;20042;-94
2021/01/23 05:21:40;;;;;;;5.25;4.25;;;24.80;80.20;;;;;;6270685;22;20075;-92
2021/01/23 05:24:09;;;;;;;7.68;4.70;;;24.80;80.30;;;;;;6267622;22;19999;-93
2021/01/23 05:26:37;;;;;;;6.43;4.25;;;24.80;80.70;;;;;;6269170;22;20243;-91
2021/01/23 05:29:15;;;;;;;6.18;3.90;;;24.80;80.60;;;;;;6265999;22;19999;-93
2021/01/23 05:31:42;;;;;;;8.50;4.13;;;24.80;80.80;;;;;;6264982;22;20003;-94
2021/01/23 05:34:31;;;;;;;7.25;4.57;;;24.80;81.00;;;;;;6268357;22;20000;-93
2021/01/23 05:36:59;;;;;;;9.07;4.53;;;24.80;80.80;;;;;;6266390;22;20000;-93
2021/01/23 05:39:48;;;;;;;6.13;4.22;;;24.80;80.70;;;;;;6264530;22;20070;-94
2021/01/23 05:42:15;;;;;;;5.72;3.88;;;24.80;80.80;;;;;;6265752;22;19996;-94
2021/01/23 05:45:09;;;;;;;7.47;3.70;;;24.70;81.10;;;;;;6266112;22;19996;-92
2021/01/23 05:47:36;;;;;;;6.93;4.18;;;24.80;80.90;;;;;;6265179;22;19999;-93
2021/01/23 05:50:05;;;;;;;8.25;4.10;;;24.70;81.10;;;;;;6291430;22;20034;-94
2021/01/23 05:52:32;;;;;;;5.57;4.40;;;24.70;80.70;;;;;;6262645;22;19996;-94
2021/01/23 05:55:01;;;;;;;6.80;4.18;;;24.70;81.30;;;;;;6263072;22;20003;-95
2021/01/23 05:57:29;;;;;;;7.28;4.65;;;24.70;81.50;;;;;;6264531;22;20248;-94
2021/01/23 05:59:56;;;;;;;6.22;3.90;;;24.70;81.20;;;;;;6237937;22;20067;-95
2021/01/23 06:02:28;;;;;;;5.30;4.00;;;24.70;81.60;;;;;;6266794;22;20014;-93
2021/01/23 06:04:54;;;;;;;;;;;24.70;81.60;;;;;;6239840;22;20004;-94
2021/01/23 06:07:48;;;;;;;6.18;4.43;;;24.70;81.70;;;;;;6266090;22;19895;-94
2021/01/23 06:10:24;;;;;;;6.80;4.20;;;24.70;82.10;;;;;;6263646;22;20288;-95
2021/01/23 06:12:55;;;;;;;6.75;4.40;;;24.70;81.80;;;;;;6264052;22;20003;-92
2021/01/23 06:15:36;;;;;;;6.75;3.95;;;24.60;82.20;;;;;;6293148;22;20015;-93
2021/01/23 06:18:08;;;;;;;6.68;4.07;;;24.60;81.60;;;;;;6293784;22;20018;-92
2021/01/23 06:20:41;;;;;;;10.27;4.60;;;24.60;82.00;;;;;;6264430;22;20034;-93
2021/01/23 06:23:09;;;;;;;6.00;3.90;;;24.60;82.30;;;;;;6263987;22;19995;-93
2021/01/23 06:25:51;;;;;;;7.55;4.55;;;24.60;82.40;;;;;;6292803;22;20172;-93
2021/01/23 06:28:26;;;;;;;4.82;4.10;;;24.60;82.00;;;;;;6265956;22;20019;-93
2021/01/23 06:30:55;;;;;;;8.15;4.38;;;24.70;82.10;;;;;;6263449;22;20007;-94
2021/01/23 06:33:25;;;;;;;8.10;4.88;;;24.70;82.00;;;;;;6291224;22;19992;-95
2021/01/23 06:36:07;;;;;;;9.18;4.13;;;24.70;81.60;;;;;;6263979;22;20019;-94
2021/01/23 06:38:37;;;;;;;7.65;4.25;;;24.70;82.20;;;;;;6266437;22;19996;-91
2021/01/23 06:41:25;;;;;;;5.47;4.05;;;24.70;82.50;;;;;;6268662;22;20000;-93
2021/01/23 06:44:07;;;;;;;8.85;4.22;;;24.70;82.00;;;;;;6271167;22;20000;-90
2021/01/23 06:46:35;;;;;;;5.85;4.05;;;24.70;82.30;;;;;;6271036;22;19992;-92
2021/01/23 06:49:12;;;;;;;6.00;4.20;;;24.70;81.80;;;;;;6267993;22;20354;-92
2021/01/23 06:51:39;;;;;;;8.50;3.90;;;24.70;81.70;;;;;;6266628;22;19992;-93
2021/01/23 06:54:22;;;;;;;5.50;3.95;;;24.70;82.30;;;;;;6266103;22;20259;-93
2021/01/23 06:56:54;;;;;;;4.18;3.65;;;24.70;82.30;;;;;;6267666;22;20185;-92
2021/01/23 06:59:34;;;;;;;8.05;3.95;;;24.70;81.90;;;;;;6266347;22;20007;-92
2021/01/23 07:02:15;;;;;;;8.05;4.00;;;24.70;82.10;;;;;;6264762;22;20280;-94
2021/01/23 07:04:50;;;;;;;5.63;4.18;;;24.70;82.30;;;;;;6264511;22;20003;-93
2021/01/23 07:07:18;;;;;;;7.70;4.05;;;24.70;82.40;;;;;;6264235;22;19992;-94
2021/01/23 07:09:50;;;;;;;8.57;4.15;;;24.70;82.10;;;;;;6265346;22;20004;-94
2021/01/23 07:12:39;;;;;;;5.82;3.95;;;24.70;82.20;;;;;;6265284;22;20011;-95
2021/01/23 07:15:09;;;;;;;6.38;4.18;;;24.60;82.20;;;;;;6263847;22;20019;-94
2021/01/23 07:17:43;;;;;;;7.57;3.80;;;24.60;82.40;;;;;;6265613;22;20054;-93
2021/01/23 07:20:16;;;;;;;9.25;4.35;;;24.60;82.90;;;;;;6268322;22;20019;-90
2021/01/23 07:22:44;;;;;;;7.03;4.15;;;24.60;82.60;;;;;;6267720;22;20003;-92
2021/01/23 07:25:16;;;;;;;5.90;4.43;;;24.60;82.50;;;;;;6266360;22;19994;-94
2021/01/23 07:27:44;;;;;;;5.78;4.10;;;24.60;82.10;;;;;;6267313;22;20015;-93
2021/01/23 07:30:15;;;;;;;7.95;4.82;;;24.60;82.30;;;;;;6266454;22;19995;-93
2021/01/23 07:32:44;;;;;;;4.85;3.90;;;24.60;82.50;;;;;;6267001;22;20058;-92
2021/01/23 07:35:12;;;;;;;5.65;4.32;;;24.60;82.90;;;;;;6268057;22;20019;-93
2021/01/23 07:37:53;;;;;;;7.13;4.28;;;24.60;83.40;;;;;;6268108;22;20017;-94
2021/01/23 07:40:31;;;;;;;5.63;4.30;;;24.60;84.40;;;;;;6265885;22;20006;-93
2021/01/23 07:43:04;;;;;;;5.97;4.32;;;24.60;84.10;;;;;;6291264;22;20000;-94
2021/01/23 07:45:32;;;;;;;8.48;4.82;;;24.60;83.30;;;;;;6263622;22;20055;-94
2021/01/23 07:48:00;;;;;;;7.28;4.78;;;24.50;83.70;;;;;;6264555;22;20000;-93
2021/01/23 07:50:36;;;;;;;6.38;4.22;;;24.60;83.50;;;;;;6264249;22;19995;-94
2021/01/23 07:53:17;;;;;;;6.68;4.30;;;24.60;83.60;;;;;;6267658;22;19996;-93
2021/01/23 07:55:45;;;;;;;8.63;4.32;;;24.50;84.10;;;;;;6269488;22;20173;-92
2021/01/23 07:58:13;;;;;;;4.95;3.85;;;24.50;84.00;;;;;;6267452;22;20027;-94
2021/01/23 08:00:41;;;;;;;7.47;4.88;;;24.50;83.80;;;;;;6269175;22;19996;-92
2021/01/23 08:03:07;;;;;;;7.65;4.60;;;24.50;84.10;;;;;;6266175;22;20000;-92
2021/01/23 08:05:49;;;;;;;9.00;4.60;;;24.50;84.40;;;;;;6265742;22;19991;-94
2021/01/23 08:08:38;;;;;;;7.13;4.07;;;24.50;84.60;;;;;;6262532;22;20007;-94
2021/01/23 08:11:06;;;;;;;6.78;4.25;;;24.50;84.40;;;;;;6262788;22;20141;-94
2021/01/23 08:13:35;;;;;;;7.28;4.40;;;24.40;84.40;;;;;;6261562;22;20055;-94
2021/01/23 08:16:15;;;;;;;7.72;4.57;;;24.40;85.10;;;;;;6261634;22;20041;-93
2021/01/23 08:18:45;;;;;;;7.35;4.43;;;24.40;84.80;;;;;;6264147;22;19999;-94
2021/01/23 08:21:19;;;;;;;9.25;4.78;;;24.30;84.90;;;;;;6264542;22;20033;-95
2021/01/23 08:23:46;;;;;;;7.78;4.57;;;24.30;85.30;;;;;;6262528;22;20067;-94
2021/01/23 08:26:14;;;;;;;8.27;4.43;;;24.20;85.30;;;;;;6288889;22;19992;-94
2021/01/23 08:28:46;;;;;;;6.03;4.15;;;24.20;85.30;;;;;;6264433;22;20014;-92
2021/01/23 08:31:16;;;;;;;5.72;4.22;;;24.10;85.30;;;;;;6262517;22;20299;-94
2021/01/23 08:33:46;;;;;;;5.00;3.83;;;24.10;85.50;;;;;;6288658;22;19996;-93
2021/01/23 08:36:12;;;;;;;8.90;4.90;;;24.10;85.20;;;;;;6261841;22;20000;-94
2021/01/23 08:38:39;;;;;;;5.32;4.07;;;24.10;85.70;;;;;;6263437;22;20010;-94
2021/01/23 08:41:06;;;;;;;5.55;3.97;;;24.10;85.90;;;;;;6266014;22;20006;-95
2021/01/23 08:43:32;;;;;;;5.22;4.20;;;24.10;86.00;;;;;;6262569;22;20000;-94
2021/01/23 08:45:59;;;;;;;8.82;4.30;;;24.10;85.70;;;;;;6263477;22;19999;-93
2021/01/23 08:48:26;;;;;;;5.68;3.90;;;24.10;85.80;;;;;;6238201;22;19995;-92
2021/01/23 08:50:54;;;;;;;6.47;4.43;;;24.00;86.20;;;;;;6262563;22;20110;-94
2021/01/23 08:53:22;;;;;;;8.50;4.28;;;24.00;86.40;;;;;;6262916;22;20004;-95
2021/01/23 08:55:49;;;;;;;6.28;4.28;;;23.90;86.60;;;;;;6264799;22;19996;-94
2021/01/23 08:58:17;;;;;;;5.30;4.07;;;23.90;87.20;;;;;;6263381;22;20023;-94
2021/01/23 09:00:44;;;;;;;6.53;4.13;;;23.90;87.50;;;;;;6267349;22;20004;-94
2021/01/23 09:03:14;;;;;;;5.57;4.72;;;23.90;87.30;;;;;;6263351;22;20003;-95
2021/01/23 09:08:29;;;;;;;8.52;4.47;;;23.90;86.90;;;;;;6282397;22;20161;-91
2021/01/23 09:10:55;;;;;;;7.38;4.38;;;23.90;87.00;;;;;;6268305;22;20142;-92
2021/01/23 09:13:22;;;;;;;6.03;4.53;;;23.90;88.20;;;;;;6266286;22;20058;-94
2021/01/23 09:15:49;;;;;;;5.45;4.25;;;23.80;87.90;;;;;;6264903;22;20000;-94
2021/01/23 09:18:15;;;;;;;11.43;4.85;;;23.80;88.30;;;;;;6263417;22;20034;-93
2021/01/23 09:20:42;;;;;;;6.65;4.57;;;23.80;88.20;;;;;;6263589;22;20026;-93
2021/01/23 09:23:08;;;;;;;7.63;4.30;;;23.90;88.40;;;;;;6287848;22;19996;-94
2021/01/23 09:25:38;;;;;;;6.18;4.60;;;23.90;87.50;;;;;;6264711;22;20002;-92
2021/01/23 09:28:05;;;;;;;6.32;4.47;;;23.90;88.80;;;;;;6264095;22;20062;-94
2021/01/23 09:30:32;;;;;;;8.45;4.63;;;24.00;88.10;;;;;;6261810;22;19999;-94
2021/01/23 09:33:00;;;;;;;8.68;3.97;;;24.00;88.50;;;;;;6289126;22;19996;-94
2021/01/23 09:35:27;;;;;;;6.28;4.43;;;24.10;88.70;;;;;;6263516;22;20000;-93
2021/01/23 09:37:54;;;;;;;7.47;4.68;;;24.10;88.60;;;;;;6261757;22;20063;-94
2021/01/23 09:40:20;;;;;;;9.23;4.93;;;24.10;88.10;;;;;;6261344;22;19999;-92
2021/01/23 09:42:47;;;;;;;8.27;5.63;;;24.10;88.30;;;;;;6261227;22;19999;-94
2021/01/23 09:45:14;;;;;;;35.42;19.33;;;24.10;88.30;;;;;;6263776;22;20007;-92
2021/01/23 09:47:40;;;;;;;11.10;6.93;;;24.20;88.80;;;;;;6263434;22;19999;-94
2021/01/23 09:50:08;;;;;;;7.75;4.90;;;24.20;88.50;;;;;;6263071;22;20066;-95
2021/01/23 09:52:34;;;;;;;8.48;4.63;;;24.20;88.50;;;;;;6262246;22;19996;-94
2021/01/23 09:55:01;;;;;;;9.75;5.25;;;24.20;88.40;;;;;;6262662;22;19996;-94
2021/01/23 09:57:28;;;;;;;9.93;6.35;;;24.20;88.40;;;;;;6262139;22;20023;-94
2021/01/23 09:59:55;;;;;;;8.15;4.50;;;24.20;88.10;;;;;;6261714;22;20022;-94
2021/01/23 10:02:21;;;;;;;7.40;4.85;;;24.20;87.90;;;;;;6263767;22;20019;-93
2021/01/23 10:04:48;;;;;;;6.75;3.85;;;24.20;87.60;;;;;;6262482;22;20354;-94
2021/01/23 10:07:14;;;;;;;9.07;5.35;;;24.20;87.80;;;;;;6265533;22;20045;-93
2021/01/23 10:09:41;;;;;;;6.57;4.75;;;24.20;87.60;;;;;;6294003;22;19995;-93
2021/01/23 10:12:08;;;;;;;8.07;5.10;;;24.30;87.60;;;;;;6294320;22;20422;-94
2021/01/23 10:14:35;;;;;;;16.55;9.13;;;24.30;87.90;;;;;;6294385;22;20033;-94
2021/01/23 10:17:02;;;;;;;6.55;4.85;;;24.20;88.30;;;;;;6294824;22;20038;-93
2021/01/23 10:19:32;;;;;;;9.35;5.03;;;24.20;87.80;;;;;;6294383;22;20184;-94
2021/01/23 10:22:00;;;;;;;8.40;4.90;;;24.20;87.80;;;;;;6293953;22;20003;-94
2021/01/23 10:24:27;;;;;;;7.95;4.75;;;24.30;87.60;;;;;;6294985;22;19991;-94
2021/01/23 10:27:01;;;;;;;9.70;5.30;;;24.30;87.90;;;;;;6293265;22;20136;-95
2021/01/23 10:29:28;;;;;;;8.55;5.20;;;24.30;87.40;;;;;;6294117;22;19997;-95
2021/01/23 10:31:59;;;;;;;7.00;4.75;;;24.30;87.20;;;;;;6294289;22;19999;-94
2021/01/23 10:34:26;;;;;;;10.20;4.15;;;24.30;87.10;;;;;;6300083;22;20006;-93
2021/01/23 10:37:21;;;;;;;;;;;;;;;;;;;;;
2021/01/23 10:39:50;;;;;;;9.38;4.00;;;24.30;86.90;;;;;;6324862;22;20011;-94
2021/01/23 10:42:17;;;;;;;4.93;3.97;;;24.30;86.70;;;;;;6298285;22;19991;-92
2021/01/23 10:44:47;;;;;;;6.78;4.40;;;24.30;86.40;;;;;;6299849;22;20003;-95
2021/01/23 10:47:13;;;;;;;7.68;4.40;;;24.30;86.80;;;;;;6295696;22;20002;-94
2021/01/23 10:49:43;;;;;;;8.65;4.82;;;24.30;86.20;;;;;;6294434;22;19999;-94
2021/01/23 10:52:10;;;;;;;8.77;4.72;;;24.30;85.00;;;;;;6303042;22;20059;-94
2021/01/23 10:54:43;;;;;;;9.13;4.35;;;24.30;84.70;;;;;;6295264;22;19995;-94
2021/01/23 10:57:11;;;;;;;6.82;3.85;;;24.40;84.80;;;;;;6294098;22;19991;-91
2021/01/23 10:59:37;;;;;;;6.60;4.20;;;24.40;83.90;;;;;;6292523;22;20031;-90
2021/01/23 11:02:04;;;;;;;6.63;4.57;;;24.40;84.20;;;;;;6320908;22;20011;-92
2021/01/23 11:04:31;;;;;;;6.82;4.10;;;24.50;83.70;;;;;;6293438;22;20015;-92
2021/01/23 11:06:59;;;;;;;8.68;3.65;;;24.40;83.90;;;;;;6293535;22;20006;-91
2021/01/23 11:09:25;;;;;;;8.10;4.68;;;24.50;83.90;;;;;;6320688;22;20042;-92
2021/01/23 11:11:52;;;;;;;8.02;4.40;;;24.50;83.70;;;;;;6303333;22;20324;-87
2021/01/23 11:14:19;;;;;;;10.07;5.07;;;24.50;84.30;;;;;;6300661;22;20002;-92
2021/01/23 11:17:11;;;;;;;7.05;4.38;;;24.50;84.40;;;;;;6321694;22;20036;-91
2021/01/23 11:19:38;;;;;;;8.63;4.45;;;24.50;84.50;;;;;;6322190;22;19991;-90
2021/01/23 11:22:04;;;;;;;7.45;5.00;;;24.50;85.00;;;;;;6325564;22;19987;-89
2021/01/23 11:24:31;;;;;;;10.02;5.40;;;24.50;85.20;;;;;;6294037;22;20013;-91
2021/01/23 11:26:58;;;;;;;7.53;4.95;;;24.50;86.20;;;;;;6295844;22;19995;-91
2021/01/23 11:29:34;;;;;;;9.63;5.90;;;24.50;85.50;;;;;;6293492;22;20037;-92
2021/01/23 11:32:06;;;;;;;10.93;5.70;;;24.50;85.40;;;;;;6299567;22;20007;-89
2021/01/23 11:34:32;;;;;;;;;;;24.50;85.70;;;;;;6315161;22;20192;-92
2021/01/23 11:36:59;;;;;;;10.75;6.90;;;24.50;86.30;;;;;;6293136;22;19909;-92
2021/01/23 11:39:26;;;;;;;13.55;7.00;;;24.40;86.60;;;;;;6294563;22;19991;-92
2021/01/23 11:42:06;;;;;;;11.07;6.78;;;24.30;87.50;;;;;;6321468;22;20041;-92
2021/01/23 11:45:01;;;;;;;19.85;10.43;;;24.40;87.40;;;;;;6294657;22;20002;-91
2021/01/23 11:47:33;;;;;;;14.73;8.30;;;24.40;87.50;;;;;;6251434;22;20053;-93
2021/01/23 11:50:10;;;;;;;18.08;9.48;;;24.50;86.90;;;;;;6296102;22;20022;-91
2021/01/23 11:52:37;;;;;;;12.93;6.95;;;24.50;87.40;;;;;;6294359;22;20219;-91
2021/01/23 11:55:05;;;;;;;12.05;6.28;;;24.60;86.70;;;;;;6292400;22;20006;-90
2021/01/23 11:57:40;;;;;;;9.07;5.45;;;24.70;86.70;;;;;;6321593;22;19991;-90
2021/01/23 12:03:04;;;;;;;8.57;4.95;;;24.90;86.00;;;;;;6219603;22;20007;-91
2021/01/23 12:08:28;;;;;;;6.45;4.68;;;25.10;84.50;;;;;;6236345;22;20074;-92
2021/01/23 12:11:14;;;;;;;6.28;4.20;;;25.20;84.30;;;;;;6293817;22;20011;-90
2021/01/23 12:13:43;;;;;;;10.02;4.60;;;25.30;84.20;;;;;;6294308;22;19996;-90
2021/01/23 12:17:07;;;;;;;11.82;5.03;;;25.40;84.00;;;;;;6296447;22;19995;-92
2021/01/23 12:19:34;;;;;;;14.90;5.70;;;25.50;84.20;;;;;;6142220;23;20001;-92
2021/01/23 12:22:01;;;;;;;7.55;5.30;;;25.60;84.00;;;;;;6310557;22;19995;-92
2021/01/23 12:24:32;;;;;;;7.88;4.82;;;25.60;84.40;;;;;;6268001;22;20015;-93
2021/01/23 12:27:04;;;;;;;6.10;4.22;;;25.60;84.90;;;;;;6321689;22;20010;-92
2021/01/23 12:30:20;;;;;;;7.22;4.15;;;25.70;85.30;;;;;;6234309;23;20000;-93
2021/01/23 12:33:28;;;;;;;7.63;4.45;;;25.80;85.00;;;;;;6198396;23;19996;-90
2021/01/23 12:35:58;;;;;;;7.53;4.38;;;25.80;84.00;;;;;;6238064;22;20198;-93
2021/01/23 12:38:24;;;;;;;6.15;4.10;;;25.90;83.70;;;;;;6236821;23;20008;-92
2021/01/23 12:40:59;;;;;;;8.20;3.75;;;26.00;83.10;;;;;;6236969;23;20031;-91
2021/01/23 12:43:29;;;;;;;9.13;4.03;;;26.20;82.40;;;;;;6237681;23;20096;-90
2021/01/23 12:45:56;;;;;;;7.28;3.75;;;26.50;82.40;;;;;;6212097;23;20023;-91
2021/01/23 12:48:22;;;;;;;5.85;3.70;;;26.60;81.10;;;;;;6257938;23;19998;-92
2021/01/23 12:50:50;;;;;;;6.15;3.63;;;26.70;80.90;;;;;;6236844;22;20038;-90
2021/01/23 12:53:17;;;;;;;6.72;3.78;;;26.80;79.90;;;;;;6236792;22;20319;-92
2021/01/23 12:56:01;;;;;;;5.45;3.83;;;26.90;79.40;;;;;;6233215;23;20008;-91
2021/01/23 12:58:33;;;;;;;6.88;3.80;;;27.00;78.50;;;;;;6233563;22;19996;-92
2021/01/23 13:01:00;;;;;;;6.57;3.38;;;27.10;78.40;;;;;;6275352;22;20011;-93
2021/01/23 13:03:26;;;;;;;5.13;3.25;;;27.10;78.10;;;;;;6292609;22;20015;-92
2021/01/23 13:05:53;;;;;;;5.25;3.55;;;27.20;77.70;;;;;;6293284;22;20021;-92
2021/01/23 13:08:21;;;;;;;6.47;3.72;;;27.40;78.40;;;;;;6292815;22;20018;-93
2021/01/23 13:10:54;;;;;;;8.38;4.28;;;27.50;77.60;;;;;;6292204;22;20011;-92
2021/01/23 13:13:32;;;;;;;6.28;3.55;;;27.60;76.80;;;;;;6293365;22;20001;-92
2021/01/23 13:15:58;;;;;;;7.05;3.75;;;27.70;76.50;;;;;;6293037;22;20010;-93
2021/01/23 13:18:28;;;;;;;8.32;4.03;;;27.60;74.90;;;;;;6321120;22;19999;-93
2021/01/23 13:20:54;;;;;;;5.68;3.78;;;27.70;75.70;;;;;;6293403;22;20003;-92
2021/01/23 13:23:22;;;;;;;5.15;3.55;;;27.70;76.30;;;;;;6293030;22;19999;-92
2021/01/23 13:25:59;;;;;;;6.38;3.10;;;27.80;76.70;;;;;;6294490;22;20026;-94
2021/01/23 13:28:25;;;;;;;7.75;3.47;;;27.80;76.20;;;;;;6307413;22;20014;-92
2021/01/23 13:30:53;;;;;;;4.15;3.10;;;27.80;75.50;;;;;;6299211;22;20037;-93
2021/01/23 13:33:23;;;;;;;8.40;4.13;;;27.90;75.10;;;;;;6306151;22;20106;-93
2021/01/23 13:35:53;;;;;;;5.00;3.17;;;28.00;76.00;;;;;;6307495;22;20015;-91
2021/01/23 13:38:23;;;;;;;5.60;2.95;;;28.00;75.50;;;;;;6307451;22;20009;-90
2021/01/23 13:40:49;;;;;;;4.25;3.00;;;28.00;74.60;;;;;;6304948;22;20026;-92
2021/01/23 13:43:16;;;;;;;5.45;3.20;;;28.00;75.10;;;;;;6306626;22;19995;-90